createdAt,value
2022-08-25T00:02:11.094Z,73.35
2022-08-25T00:02:54.904Z,73.52
2022-08-25T00:03:28.194Z,73.89
2022-08-25T00:04:11.121Z,74.04
2022-08-25T00:05:32.383Z,73.48
2022-08-25T00:06:06.756Z,74.10
2022-08-25T00:06:42.988Z,73.73
2022-08-25T00:07:14.324Z,74.12
2022-08-25T00:08:09.385Z,73.64
2022-08-25T00:08:41.824Z,74.01
2022-08-25T00:09:15.873Z,73.60
2022-08-25T00:09:47.757Z,73.94
2022-08-25T00:10:20.344Z,74.07
2022-08-25T00:10:59.941Z,74.25
2022-08-25T00:11:36.719Z,73.71
2022-08-25T00:12:08.621Z,74.38
2022-08-25T00:12:39.982Z,74.16
2022-08-25T00:13:11.566Z,73.89
2022-08-25T00:13:45.051Z,74.33
2022-08-25T00:14:22.011Z,73.85
2022-08-25T00:14:53.383Z,74.09
2022-08-25T00:15:25.416Z,74.37
2022-08-25T00:15:57.071Z,74.14
2022-08-25T00:16:31.304Z,74.01
2022-08-25T00:17:03.561Z,74.05
2022-08-25T00:17:35.227Z,74.27
2022-08-25T00:18:06.717Z,73.97
2022-08-25T00:19:42.684Z,74.91
2022-08-25T00:20:14.737Z,74.43
2022-08-25T00:20:48.774Z,74.84
2022-08-25T00:21:21.446Z,74.65
2022-08-25T00:21:53.268Z,74.81
2022-08-25T00:22:24.616Z,74.53
2022-08-25T00:22:56.206Z,74.76
2022-08-25T00:23:27.547Z,74.61
2022-08-25T00:24:02.122Z,74.73
2022-08-25T00:24:33.883Z,75.22
2022-08-25T00:25:05.711Z,74.30
2022-08-25T00:25:37.529Z,74.26
2022-08-25T00:26:09.779Z,74.67
2022-08-25T00:26:43.788Z,74.97
2022-08-25T00:27:15.316Z,74.61
2022-08-25T00:27:48.062Z,74.27
2022-08-25T00:28:19.444Z,74.15
2022-08-25T00:28:50.989Z,73.97
2022-08-25T00:29:26.466Z,74.70
2022-08-25T00:29:57.859Z,74.24
2022-08-25T00:30:30.225Z,74.24
2022-08-25T00:31:02.212Z,73.99
2022-08-25T00:31:38.694Z,74.87
2022-08-25T00:32:10.453Z,74.78
2022-08-25T00:32:42.038Z,74.20
2022-08-25T00:33:20.945Z,74.69
2022-08-25T00:33:53.564Z,74.82
2022-08-25T00:34:29.745Z,74.87
2022-08-25T00:35:01.107Z,75.18
2022-08-25T00:35:32.549Z,75.24
2022-08-25T00:36:04.820Z,75.18
2022-08-25T00:36:36.508Z,75.13
2022-08-25T00:37:09.520Z,75.09
2022-08-25T00:37:59.259Z,74.69
2022-08-25T00:38:31.326Z,74.59
2022-08-25T00:39:02.931Z,74.94
2022-08-25T00:39:34.370Z,74.51
2022-08-25T00:40:07.243Z,74.72
2022-08-25T00:40:40.628Z,74.59
2022-08-25T00:41:32.328Z,74.80
2022-08-25T00:42:10.787Z,74.76
2022-08-25T00:42:47.675Z,74.84
2022-08-25T00:43:19.466Z,75.18
2022-08-25T00:43:57.905Z,75.04
2022-08-25T00:44:31.276Z,74.97
2022-08-25T00:45:03.025Z,74.64
2022-08-25T00:45:36.238Z,74.91
2022-08-25T00:46:34.495Z,75.30
2022-08-25T00:47:06.613Z,75.11
2022-08-25T00:47:38.145Z,75.12
2022-08-25T00:48:09.528Z,75.27
2022-08-25T00:49:00.887Z,75.39
2022-08-25T00:49:57.843Z,75.54
2022-08-25T00:50:32.180Z,75.72
2022-08-25T00:51:07.120Z,74.94
2022-08-25T00:51:51.668Z,75.59
2022-08-25T00:52:27.704Z,75.95
2022-08-25T00:53:01.983Z,75.39
2022-08-25T00:54:27.161Z,75.98
2022-08-25T00:55:21.764Z,75.36
2022-08-25T00:55:54.076Z,75.75
2022-08-25T00:56:44.464Z,75.55
2022-08-25T00:57:22.185Z,75.36
2022-08-25T00:58:14.443Z,75.61
2022-08-25T00:58:46.102Z,76.05
2022-08-25T00:59:22.992Z,75.61
2022-08-25T00:59:54.801Z,75.89
2022-08-25T01:00:38.131Z,76.00
2022-08-25T01:01:09.720Z,76.07
2022-08-25T01:01:41.195Z,76.15
2022-08-25T01:02:15.165Z,76.16
2022-08-25T01:02:47.172Z,75.72
2022-08-25T01:03:19.753Z,75.91
2022-08-25T01:03:51.268Z,76.07
2022-08-25T01:04:23.720Z,76.48
2022-08-25T01:04:55.261Z,76.29
2022-08-25T01:05:28.169Z,76.06
2022-08-25T01:06:19.523Z,76.01
2022-08-25T01:07:10.540Z,75.83
2022-08-25T01:08:39.597Z,76.42
2022-08-25T01:09:14.101Z,76.59
2022-08-25T01:09:47.610Z,76.68
2022-08-25T01:11:11.701Z,76.39
2022-08-25T01:11:44.831Z,76.59
2022-08-25T01:12:16.299Z,76.73
2022-08-25T01:12:48.109Z,76.68
2022-08-25T01:13:28.929Z,76.47
2022-08-25T01:14:06.189Z,76.28
2022-08-25T01:14:38.397Z,76.60
2022-08-25T01:15:12.178Z,75.88
2022-08-25T01:15:45.608Z,75.94
2022-08-25T01:16:17.504Z,76.14
2022-08-25T01:16:51.033Z,76.32
2022-08-25T01:17:28.255Z,76.00
2022-08-25T01:18:00.054Z,76.11
2022-08-25T01:18:44.276Z,76.06
2022-08-25T01:19:15.756Z,75.75
2022-08-25T01:19:47.604Z,76.49
2022-08-25T01:20:29.395Z,76.08
2022-08-25T01:21:00.936Z,76.29
2022-08-25T01:21:39.620Z,76.28
2022-08-25T01:22:11.965Z,76.08
2022-08-25T01:23:02.124Z,76.24
2022-08-25T01:23:34.102Z,76.22
2022-08-25T01:24:24.361Z,76.60
2022-08-25T01:25:03.995Z,76.26
2022-08-25T01:25:57.436Z,76.46
2022-08-25T01:26:31.662Z,76.19
2022-08-25T01:27:03.939Z,76.07
2022-08-25T01:27:35.296Z,75.91
2022-08-25T01:28:07.144Z,76.10
2022-08-25T01:29:00.851Z,76.06
2022-08-25T01:29:32.309Z,76.02
2022-08-25T01:30:23.232Z,76.24
2022-08-25T01:30:54.857Z,75.99
2022-08-25T01:31:28.847Z,76.30
2022-08-25T01:32:52.647Z,76.38
2022-08-25T01:33:24.120Z,76.69
2022-08-25T01:33:56.695Z,76.71
2022-08-25T01:34:31.305Z,76.13
2022-08-25T01:35:03.104Z,75.95
2022-08-25T01:35:35.724Z,76.42
2022-08-25T01:36:07.452Z,76.57
2022-08-25T01:36:40.584Z,76.27
2022-08-25T01:37:14.648Z,77.04
2022-08-25T01:37:46.384Z,75.47
2022-08-25T01:38:20.859Z,76.03
2022-08-25T01:38:55.468Z,76.13
2022-08-25T01:39:29.024Z,76.33
2022-08-25T01:40:19.090Z,76.24
2022-08-25T01:40:50.463Z,76.39
2022-08-25T01:41:40.043Z,76.38
2022-08-25T01:42:37.782Z,76.29
2022-08-25T01:43:15.012Z,76.52
2022-08-25T01:43:46.591Z,76.73
2022-08-25T01:44:18.747Z,76.16
2022-08-25T01:44:50.564Z,76.94
2022-08-25T01:45:22.112Z,76.92
2022-08-25T01:45:53.628Z,76.77
2022-08-25T01:46:25.099Z,76.66
2022-08-25T01:46:59.884Z,76.88
2022-08-25T01:47:32.319Z,76.17
2022-08-25T01:48:05.181Z,76.00
2022-08-25T01:48:55.146Z,76.30
2022-08-25T01:49:26.533Z,75.93
2022-08-25T01:49:57.867Z,76.51
2022-08-25T01:50:29.545Z,76.22
2022-08-25T01:51:57.229Z,75.68
2022-08-25T01:52:45.404Z,76.11
2022-08-25T01:53:24.223Z,75.76
2022-08-25T01:53:55.713Z,76.46
2022-08-25T01:54:27.105Z,75.78
2022-08-25T01:54:58.455Z,76.05
2022-08-25T01:55:31.073Z,75.82
2022-08-25T01:56:11.370Z,76.32
2022-08-25T01:56:42.997Z,76.47
2022-08-25T01:57:15.596Z,76.36
2022-08-25T01:57:46.960Z,76.36
2022-08-25T01:58:42.209Z,76.40
2022-08-25T01:59:37.836Z,75.45
2022-08-25T02:00:13.319Z,75.99
2022-08-25T02:00:47.206Z,76.22
2022-08-25T02:01:21.355Z,76.54
2022-08-25T02:02:00.058Z,76.47
2022-08-25T02:02:31.754Z,76.06
2022-08-25T02:03:04.478Z,76.39
2022-08-25T02:03:45.669Z,76.13
2022-08-25T02:04:18.868Z,75.73
2022-08-25T02:04:53.807Z,76.00
2022-08-25T02:05:43.460Z,75.79
2022-08-25T02:06:29.804Z,75.75
2022-08-25T02:07:21.809Z,75.95
2022-08-25T02:08:11.720Z,75.87
2022-08-25T02:08:43.524Z,76.39
2022-08-25T02:09:17.017Z,76.28
2022-08-25T02:09:48.403Z,75.96
2022-08-25T02:10:19.761Z,76.11
2022-08-25T02:10:53.167Z,75.85
2022-08-25T02:11:25.660Z,76.10
2022-08-25T02:11:57.432Z,75.58
2022-08-25T02:12:29.005Z,76.21
2022-08-25T02:13:00.368Z,75.87
2022-08-25T02:13:32.543Z,76.41
2022-08-25T02:14:04.445Z,75.87
2022-08-25T02:14:55.245Z,76.26
2022-08-25T02:15:27.068Z,75.46
2022-08-25T02:16:01.006Z,76.25
2022-08-25T02:16:36.813Z,76.03
2022-08-25T02:17:09.700Z,75.15
2022-08-25T02:17:41.061Z,75.39
2022-08-25T02:18:12.708Z,75.53
2022-08-25T02:18:46.293Z,76.03
2022-08-25T02:19:19.669Z,75.82
2022-08-25T02:19:51.057Z,75.71
2022-08-25T02:20:23.900Z,75.51
2022-08-25T02:20:55.332Z,76.09
2022-08-25T02:22:17.443Z,75.63
2022-08-25T02:22:53.155Z,75.92
2022-08-25T02:23:28.481Z,75.84
2022-08-25T02:24:00.337Z,75.74
2022-08-25T02:24:32.391Z,75.90
2022-08-25T02:25:04.307Z,75.04
2022-08-25T02:26:27.047Z,75.70
2022-08-25T02:26:59.312Z,76.01
2022-08-25T02:27:30.667Z,75.54
2022-08-25T02:28:02.157Z,75.43
2022-08-25T02:28:52.265Z,75.64
2022-08-25T02:29:24.066Z,74.76
2022-08-25T02:29:55.892Z,74.93
2022-08-25T02:30:27.572Z,75.29
2022-08-25T02:31:01.351Z,75.90
2022-08-25T02:31:33.815Z,75.18
2022-08-25T02:32:05.848Z,75.17
2022-08-25T02:33:14.814Z,75.66
2022-08-25T02:33:46.540Z,75.49
2022-08-25T02:34:17.921Z,75.74
2022-08-25T02:34:49.527Z,74.90
2022-08-25T02:35:21.541Z,75.27
2022-08-25T02:36:11.414Z,74.73
2022-08-25T02:36:43.736Z,75.15
2022-08-25T02:37:15.182Z,74.76
2022-08-25T02:37:46.713Z,74.31
2022-08-25T02:39:10.629Z,74.63
2022-08-25T02:39:41.999Z,74.81
2022-08-25T02:40:32.237Z,74.85
2022-08-25T02:41:12.492Z,74.38
2022-08-25T02:41:43.914Z,74.82
2022-08-25T02:42:34.177Z,74.25
2022-08-25T02:43:05.864Z,74.69
2022-08-25T02:43:37.423Z,74.43
2022-08-25T02:44:09.376Z,73.90
2022-08-25T02:44:41.068Z,74.74
2022-08-25T02:45:12.528Z,74.28
2022-08-25T02:45:43.896Z,74.65
2022-08-25T02:46:18.484Z,74.33
2022-08-25T02:46:49.905Z,74.35
2022-08-25T02:47:26.892Z,73.76
2022-08-25T02:47:58.652Z,74.61
2022-08-25T02:48:30.258Z,73.76
2022-08-25T02:49:01.956Z,73.95
2022-08-25T02:49:33.416Z,73.98
2022-08-25T02:50:55.371Z,74.29
2022-08-25T02:51:29.938Z,74.25
2022-08-25T02:52:01.354Z,74.37
2022-08-25T02:52:33.128Z,73.57
2022-08-25T02:53:04.512Z,74.35
2022-08-25T02:54:28.584Z,74.27
2022-08-25T02:54:59.981Z,73.59
2022-08-25T02:55:31.568Z,73.43
2022-08-25T02:56:25.747Z,73.89
2022-08-25T02:56:57.095Z,74.28
2022-08-25T02:57:28.463Z,73.92
2022-08-25T02:57:59.832Z,73.36
2022-08-25T02:58:31.212Z,73.86
2022-08-25T02:59:04.134Z,73.51
2022-08-25T02:59:35.896Z,73.80
2022-08-25T03:00:09.769Z,73.98
2022-08-25T03:00:44.291Z,73.69
2022-08-25T03:01:16.477Z,74.12
2022-08-25T03:01:47.937Z,73.89
2022-08-25T03:03:08.420Z,73.35
2022-08-25T03:03:41.358Z,73.11
2022-08-25T03:04:14.791Z,73.33
2022-08-25T03:04:46.218Z,74.02
2022-08-25T03:05:17.733Z,73.69
2022-08-25T03:05:49.478Z,73.73
2022-08-25T03:06:23.176Z,73.24
2022-08-25T03:06:54.980Z,73.99
2022-08-25T03:07:44.864Z,73.70
2022-08-25T03:08:16.357Z,73.11
2022-08-25T03:08:47.727Z,73.77
2022-08-25T03:09:19.275Z,73.90
2022-08-25T03:09:50.617Z,73.81
2022-08-25T03:10:21.981Z,73.40
2022-08-25T03:10:53.336Z,73.11
2022-08-25T03:11:26.484Z,73.45
2022-08-25T03:11:57.965Z,73.04
2022-08-25T03:12:29.304Z,73.19
2022-08-25T03:13:01.228Z,73.38
2022-08-25T03:13:33.152Z,72.90
2022-08-25T03:14:58.426Z,72.93
2022-08-25T03:15:30.681Z,73.31
2022-08-25T03:16:03.184Z,72.67
2022-08-25T03:16:34.681Z,72.66
2022-08-25T03:17:08.677Z,72.66
2022-08-25T03:17:40.398Z,73.03
2022-08-25T03:18:12.237Z,73.05
2022-08-25T03:18:45.947Z,73.22
2022-08-25T03:19:18.044Z,73.25
2022-08-25T03:19:49.403Z,72.62
2022-08-25T03:20:22.379Z,73.09
2022-08-25T03:20:53.988Z,72.89
2022-08-25T03:21:45.823Z,72.92
2022-08-25T03:22:17.195Z,72.96
2022-08-25T03:22:49.192Z,72.73
2022-08-25T03:23:20.766Z,72.95
2022-08-25T03:23:52.507Z,72.77
2022-08-25T03:24:24.407Z,72.09
2022-08-25T03:25:15.719Z,72.61
2022-08-25T03:26:05.815Z,72.36
2022-08-25T03:26:55.916Z,72.42
2022-08-25T03:27:30.373Z,72.12
2022-08-25T03:28:02.041Z,72.68
2022-08-25T03:28:33.886Z,71.95
2022-08-25T03:29:05.537Z,72.87
2022-08-25T03:29:36.881Z,72.56
2022-08-25T03:30:09.027Z,72.55
2022-08-25T03:30:41.804Z,72.22
2022-08-25T03:31:13.312Z,72.61
2022-08-25T03:31:45.200Z,72.00
2022-08-25T03:32:16.664Z,72.14
2022-08-25T03:32:48.085Z,71.90
2022-08-25T03:33:20.075Z,72.24
2022-08-25T03:33:51.480Z,72.64
2022-08-25T03:34:23.019Z,72.33
2022-08-25T03:34:54.374Z,72.04
2022-08-25T03:35:44.660Z,72.28
2022-08-25T03:36:16.063Z,72.29
2022-08-25T03:36:50.049Z,72.45
2022-08-25T03:37:39.689Z,73.04
2022-08-25T03:38:11.492Z,72.45
2022-08-25T03:38:43.192Z,71.94
2022-08-25T03:39:14.945Z,72.97
2022-08-25T03:39:46.329Z,72.14
2022-08-25T03:40:37.092Z,72.60
2022-08-25T03:41:16.512Z,72.24
2022-08-25T03:41:48.067Z,72.03
2022-08-25T03:42:19.642Z,71.21
2022-08-25T03:42:51.047Z,72.11
2022-08-25T03:43:22.877Z,71.96
2022-08-25T03:43:55.467Z,72.25
2022-08-25T03:44:26.856Z,71.53
2022-08-25T03:44:58.343Z,71.80
2022-08-25T03:45:48.392Z,71.55
2022-08-25T03:46:39.937Z,71.18
2022-08-25T03:47:11.496Z,70.72
2022-08-25T03:47:46.321Z,71.07
2022-08-25T03:48:17.826Z,71.20
2022-08-25T03:48:49.891Z,71.42
2022-08-25T03:49:23.472Z,71.56
2022-08-25T03:49:55.145Z,71.88
2022-08-25T03:50:51.561Z,71.93
2022-08-25T03:51:25.956Z,71.75
2022-08-25T03:51:57.331Z,71.63
2022-08-25T03:52:28.860Z,71.34
2022-08-25T03:53:00.224Z,71.69
2022-08-25T03:53:31.592Z,71.43
2022-08-25T03:54:04.347Z,71.52
2022-08-25T03:54:35.916Z,71.43
2022-08-25T03:55:10.372Z,70.98
2022-08-25T03:55:42.268Z,71.59
2022-08-25T03:56:13.620Z,71.20
2022-08-25T03:56:45.402Z,70.79
2022-08-25T03:57:16.849Z,71.23
2022-08-25T03:57:48.404Z,71.65
2022-08-25T03:58:21.788Z,71.01
2022-08-25T03:58:53.695Z,71.72
2022-08-25T03:59:26.999Z,70.81
2022-08-25T03:59:58.362Z,71.21
2022-08-25T04:00:29.812Z,71.67
2022-08-25T04:01:01.240Z,71.00
2022-08-25T04:01:34.259Z,70.55
2022-08-25T04:02:06.948Z,70.93
2022-08-25T04:02:39.320Z,70.73
2022-08-25T04:03:11.132Z,70.97
2022-08-25T04:03:43.114Z,71.46
2022-08-25T04:04:16.118Z,71.03
2022-08-25T04:04:47.583Z,71.06
2022-08-25T04:05:20.141Z,70.54
2022-08-25T04:05:51.661Z,71.48
2022-08-25T04:06:23.532Z,71.30
2022-08-25T04:06:54.915Z,71.17
2022-08-25T04:07:26.454Z,70.99
2022-08-25T04:07:57.812Z,71.34
2022-08-25T04:08:48.127Z,70.99
2022-08-25T04:09:19.752Z,71.16
2022-08-25T04:09:51.748Z,71.37
2022-08-25T04:11:30.540Z,71.91
2022-08-25T04:12:02.026Z,71.44
2022-08-25T04:12:34.168Z,72.03
2022-08-25T04:13:05.716Z,72.20
2022-08-25T04:13:37.604Z,72.09
2022-08-25T04:14:27.807Z,71.15
2022-08-25T04:14:59.386Z,71.41
2022-08-25T04:15:30.743Z,71.93
2022-08-25T04:16:04.325Z,71.44
2022-08-25T04:16:36.097Z,71.96
2022-08-25T04:17:08.428Z,71.83
2022-08-25T04:17:40.379Z,71.40
2022-08-25T04:18:13.189Z,72.18
2022-08-25T04:18:45.668Z,72.22
2022-08-25T04:19:16.991Z,71.71
2022-08-25T04:19:48.317Z,72.50
2022-08-25T04:20:19.700Z,71.92
2022-08-25T04:20:51.031Z,71.87
2022-08-25T04:21:23.086Z,72.08
2022-08-25T04:21:56.563Z,72.62
2022-08-25T04:22:29.147Z,72.03
2022-08-25T04:23:01.535Z,72.17
2022-08-25T04:23:32.913Z,71.52
2022-08-25T04:24:05.120Z,71.93
2022-08-25T04:24:36.483Z,71.72
2022-08-25T04:25:08.389Z,71.64
2022-08-25T04:25:43.979Z,71.78
2022-08-25T04:26:51.115Z,71.84
2022-08-25T04:27:22.432Z,71.59
2022-08-25T04:27:55.246Z,71.53
2022-08-25T04:28:26.696Z,71.72
2022-08-25T04:29:00.695Z,71.20
2022-08-25T04:29:32.612Z,72.29
2022-08-25T04:30:06.071Z,71.68
2022-08-25T04:30:42.475Z,71.67
2022-08-25T04:31:18.692Z,72.42
2022-08-25T04:32:39.795Z,71.67
2022-08-25T04:33:11.151Z,71.95
2022-08-25T04:34:01.235Z,71.50
2022-08-25T04:34:32.740Z,72.45
2022-08-25T04:35:05.319Z,72.28
2022-08-25T04:35:36.726Z,72.35
2022-08-25T04:38:07.483Z,72.54
2022-08-25T04:38:40.704Z,71.76
2022-08-25T04:39:12.736Z,72.33
2022-08-25T04:40:33.080Z,72.23
2022-08-25T04:42:14.688Z,72.05
2022-08-25T04:42:47.256Z,72.37
2022-08-25T04:43:19.531Z,71.99
2022-08-25T04:43:51.838Z,71.36
2022-08-25T04:44:23.234Z,72.12
2022-08-25T04:44:54.622Z,72.24
2022-08-25T04:45:26.078Z,71.61
2022-08-25T04:45:58.022Z,71.89
2022-08-25T04:46:31.627Z,71.17
2022-08-25T04:48:41.479Z,71.91
2022-08-25T04:49:12.847Z,72.64
2022-08-25T04:49:44.171Z,71.84
2022-08-25T04:50:16.508Z,72.32
2022-08-25T04:51:06.425Z,71.95
2022-08-25T04:51:40.599Z,71.28
2022-08-25T04:52:14.415Z,71.81
2022-08-25T04:52:46.447Z,72.10
2022-08-25T04:53:18.423Z,72.05
2022-08-25T04:53:51.908Z,72.02
2022-08-25T04:54:23.894Z,72.28
2022-08-25T04:54:55.308Z,72.46
2022-08-25T04:55:26.867Z,72.58
2022-08-25T04:56:01.865Z,72.40
2022-08-25T04:56:36.248Z,72.04
2022-08-25T04:57:07.645Z,72.10
2022-08-25T04:57:39.066Z,71.76
2022-08-25T04:58:14.899Z,71.62
2022-08-25T04:59:08.972Z,72.58
2022-08-25T04:59:40.354Z,71.77
2022-08-25T05:00:12.467Z,71.77
2022-08-25T05:00:43.944Z,71.93
2022-08-25T05:01:21.836Z,72.00
2022-08-25T05:01:53.259Z,72.28
2022-08-25T05:02:25.208Z,72.24
2022-08-25T05:02:56.763Z,72.63
2022-08-25T05:03:28.189Z,72.08
2022-08-25T05:04:52.430Z,71.35
2022-08-25T05:05:24.058Z,72.19
2022-08-25T05:05:55.377Z,71.51
2022-08-25T05:06:46.567Z,72.00
2022-08-25T05:07:17.994Z,71.34
2022-08-25T05:07:49.374Z,71.95
2022-08-25T05:08:39.188Z,71.68
2022-08-25T05:09:32.312Z,71.31
2022-08-25T05:10:04.488Z,72.20
2022-08-25T05:10:40.793Z,71.43
2022-08-25T05:11:32.984Z,71.94
2022-08-25T05:12:06.355Z,72.01
2022-08-25T05:12:56.680Z,71.66
2022-08-25T05:13:28.666Z,71.44
2022-08-25T05:14:01.874Z,71.90
2022-08-25T05:14:33.265Z,70.82
2022-08-25T05:15:25.268Z,70.70
2022-08-25T05:16:00.228Z,71.21
2022-08-25T05:16:31.854Z,70.73
2022-08-25T05:17:03.243Z,71.22
2022-08-25T05:17:34.564Z,70.04
2022-08-25T05:18:06.046Z,71.04
2022-08-25T05:18:37.430Z,70.90
2022-08-25T05:19:08.815Z,70.16
2022-08-25T05:20:31.030Z,70.47
2022-08-25T05:21:05.335Z,71.07
2022-08-25T05:21:37.823Z,70.60
2022-08-25T05:22:09.380Z,70.24
2022-08-25T05:22:44.652Z,71.49
2022-08-25T05:23:16.162Z,70.68
2022-08-25T05:23:48.076Z,71.52
2022-08-25T05:24:20.636Z,69.38
2022-08-25T05:24:51.952Z,69.84
2022-08-25T05:26:20.559Z,70.28
2022-08-25T05:27:11.126Z,69.48
2022-08-25T05:28:01.327Z,70.81
2022-08-25T05:28:32.969Z,69.96
2022-08-25T05:29:05.566Z,70.73
2022-08-25T05:29:36.908Z,69.78
2022-08-25T05:30:10.640Z,70.41
2022-08-25T05:30:43.195Z,70.21
2022-08-25T05:31:14.931Z,69.50
2022-08-25T05:31:50.292Z,69.62
2022-08-25T05:32:22.033Z,69.58
2022-08-25T05:33:11.878Z,68.74
2022-08-25T05:33:43.950Z,68.94
2022-08-25T05:34:15.500Z,70.72
2022-08-25T05:34:46.820Z,69.98
2022-08-25T05:35:19.775Z,70.19
2022-08-25T05:35:51.741Z,69.58
2022-08-25T05:36:24.505Z,69.83
2022-08-25T05:36:57.320Z,69.98
2022-08-25T05:37:28.666Z,69.51
2022-08-25T05:38:00.042Z,68.76
2022-08-25T05:38:31.807Z,68.77
2022-08-25T05:39:04.276Z,68.44
2022-08-25T05:39:35.638Z,69.05
2022-08-25T05:40:08.230Z,67.99
2022-08-25T05:40:39.614Z,68.83
2022-08-25T05:41:18.054Z,67.98
2022-08-25T05:41:49.394Z,68.66
2022-08-25T05:42:20.908Z,68.59
2022-08-25T05:42:52.220Z,69.45
2022-08-25T05:43:25.475Z,69.62
2022-08-25T05:43:57.372Z,69.21
2022-08-25T05:44:28.700Z,69.30
2022-08-25T05:45:00.066Z,67.66
2022-08-25T05:45:50.445Z,67.83
2022-08-25T05:46:22.730Z,67.69
2022-08-25T05:46:54.046Z,68.49
2022-08-25T05:47:25.439Z,68.16
2022-08-25T05:47:57.911Z,68.42
2022-08-25T05:48:29.407Z,68.83
2022-08-25T05:49:00.950Z,69.27
2022-08-25T05:49:50.728Z,67.98
2022-08-25T05:50:22.616Z,67.82
2022-08-25T05:50:55.653Z,68.69
2022-08-25T05:51:27.484Z,68.91
2022-08-25T05:51:59.244Z,68.83
2022-08-25T05:52:30.571Z,68.08
2022-08-25T05:53:02.162Z,68.63
2022-08-25T05:53:34.964Z,67.83
2022-08-25T05:54:06.331Z,68.09
2022-08-25T05:54:37.756Z,67.61
2022-08-25T05:56:00.193Z,68.25
2022-08-25T05:56:31.619Z,68.05
2022-08-25T05:57:21.519Z,68.16
2022-08-25T05:58:43.141Z,67.63
2022-08-25T05:59:14.461Z,67.17
2022-08-25T05:59:45.807Z,68.38
2022-08-25T06:00:17.596Z,68.38
2022-08-25T06:01:08.662Z,67.77
2022-08-25T06:02:17.594Z,66.65
2022-08-25T06:02:49.594Z,68.12
2022-08-25T06:03:21.041Z,67.46
2022-08-25T06:03:55.548Z,68.18
2022-08-25T06:04:27.403Z,66.18
2022-08-25T06:04:58.881Z,66.31
2022-08-25T06:05:30.573Z,67.48
2022-08-25T06:06:07.178Z,67.34
2022-08-25T06:07:28.481Z,68.67
2022-08-25T06:07:59.917Z,68.39
2022-08-25T06:08:33.756Z,68.72
2022-08-25T06:09:06.773Z,68.06
2022-08-25T06:09:39.988Z,67.53
2022-08-25T06:10:30.243Z,67.08
2022-08-25T06:11:01.593Z,67.62
2022-08-25T06:11:32.935Z,67.00
2022-08-25T06:12:04.624Z,67.12
2022-08-25T06:12:36.194Z,67.06
2022-08-25T06:13:08.300Z,65.68
2022-08-25T06:13:41.038Z,67.15
2022-08-25T06:14:12.479Z,67.66
2022-08-25T06:14:43.845Z,67.14
2022-08-25T06:15:19.213Z,66.07
2022-08-25T06:15:50.648Z,66.89
2022-08-25T06:16:22.058Z,67.10
2022-08-25T06:17:11.823Z,66.73
2022-08-25T06:17:43.228Z,66.78
2022-08-25T06:18:33.567Z,67.07
2022-08-25T06:19:05.307Z,66.63
2022-08-25T06:19:37.056Z,66.77
2022-08-25T06:20:17.481Z,67.58
2022-08-25T06:20:48.815Z,67.28
2022-08-25T06:21:20.532Z,68.51
2022-08-25T06:21:58.646Z,67.69
2022-08-25T06:22:29.996Z,67.68
2022-08-25T06:23:01.620Z,67.81
2022-08-25T06:23:32.961Z,67.82
2022-08-25T06:24:05.211Z,67.76
2022-08-25T06:24:36.977Z,68.27
2022-08-25T06:25:10.183Z,69.79
2022-08-25T06:25:41.731Z,68.67
2022-08-25T06:26:20.922Z,68.63
2022-08-25T06:26:53.584Z,67.71
2022-08-25T06:27:24.996Z,66.08
2022-08-25T06:28:45.111Z,66.71
2022-08-25T06:29:16.701Z,68.05
2022-08-25T06:29:48.094Z,67.18
2022-08-25T06:30:43.632Z,67.18
2022-08-25T06:31:15.196Z,67.69
2022-08-25T06:31:47.095Z,66.82
2022-08-25T06:32:18.640Z,66.74
2022-08-25T06:32:50.042Z,67.08
2022-08-25T06:33:21.396Z,67.16
2022-08-25T06:34:41.776Z,67.20
2022-08-25T06:35:17.317Z,67.33
2022-08-25T06:35:48.872Z,67.62
2022-08-25T06:36:20.437Z,67.19
2022-08-25T06:36:52.099Z,67.75
2022-08-25T06:37:42.436Z,67.78
2022-08-25T06:38:14.752Z,68.33
2022-08-25T06:38:46.634Z,67.10
2022-08-25T06:39:17.968Z,67.42
2022-08-25T06:39:49.368Z,67.25
2022-08-25T06:40:21.155Z,67.57
2022-08-25T06:40:52.720Z,67.68
2022-08-25T06:41:25.235Z,68.26
2022-08-25T06:42:07.990Z,69.32
2022-08-25T06:42:39.600Z,68.25
2022-08-25T06:44:19.087Z,67.73
2022-08-25T06:44:50.549Z,67.40
2022-08-25T06:45:22.425Z,67.40
2022-08-25T06:46:42.485Z,67.27
2022-08-25T06:47:15.675Z,67.15
2022-08-25T06:47:47.034Z,67.61
2022-08-25T06:48:18.489Z,67.18
2022-08-25T06:48:50.172Z,67.65
2022-08-25T06:49:39.884Z,68.24
2022-08-25T06:50:11.235Z,67.88
2022-08-25T06:50:43.483Z,68.16
2022-08-25T06:51:17.832Z,68.76
2022-08-25T06:51:50.144Z,68.22
2022-08-25T06:52:21.725Z,68.09
2022-08-25T06:53:50.912Z,67.66
2022-08-25T06:54:22.392Z,68.86
2022-08-25T06:54:54.567Z,68.47
2022-08-25T06:55:25.935Z,67.56
2022-08-25T06:55:58.291Z,68.37
2022-08-25T06:58:45.475Z,67.42
2022-08-25T06:59:17.402Z,66.94
2022-08-25T06:59:49.110Z,67.21
2022-08-25T07:02:15.473Z,66.60
2022-08-25T07:02:53.529Z,66.99
2022-08-25T07:03:25.243Z,67.19
2022-08-25T07:05:06.465Z,67.84
2022-08-25T07:06:47.823Z,68.00
2022-08-25T07:08:08.295Z,67.56
2022-08-25T07:08:39.943Z,66.35
2022-08-25T07:09:12.543Z,65.50
2022-08-25T07:09:44.087Z,65.31
2022-08-25T07:10:15.431Z,66.22
2022-08-25T07:10:50.814Z,66.00
2022-08-25T07:11:22.234Z,65.03
2022-08-25T07:11:54.187Z,65.87
2022-08-25T07:12:25.520Z,65.80
2022-08-25T07:12:57.272Z,65.60
2022-08-25T07:13:28.652Z,65.72
2022-08-25T07:14:06.052Z,65.86
2022-08-25T07:14:37.980Z,65.74
2022-08-25T07:15:19.749Z,65.59
2022-08-25T07:15:55.208Z,64.10
2022-08-25T07:16:29.568Z,64.26
2022-08-25T07:17:01.553Z,63.89
2022-08-25T07:17:32.959Z,64.13
2022-08-25T07:18:05.869Z,64.69
2022-08-25T07:18:37.569Z,66.58
2022-08-25T07:19:10.147Z,65.48
2022-08-25T07:19:46.092Z,65.50
2022-08-25T07:20:37.104Z,65.48
2022-08-25T07:21:09.362Z,64.74
2022-08-25T07:21:45.399Z,64.24
2022-08-25T07:23:07.045Z,64.76
2022-08-25T07:23:39.635Z,64.81
2022-08-25T07:24:13.329Z,64.55
2022-08-25T07:24:44.701Z,65.93
2022-08-25T07:25:17.690Z,62.97
2022-08-25T07:25:49.599Z,62.33
2022-08-25T07:26:37.430Z,62.64
2022-08-25T07:27:28.431Z,62.58
2022-08-25T07:28:18.527Z,63.36
2022-08-25T07:28:50.111Z,64.01
2022-08-25T07:29:32.123Z,64.15
2022-08-25T07:31:00.813Z,62.25
2022-08-25T07:31:32.405Z,62.77
2022-08-25T07:32:05.261Z,63.02
2022-08-25T07:32:36.712Z,61.81
2022-08-25T07:33:08.354Z,60.85
2022-08-25T07:33:59.944Z,60.78
2022-08-25T07:34:51.903Z,60.60
2022-08-25T07:35:26.160Z,61.14
2022-08-25T07:35:58.047Z,60.12
2022-08-25T07:36:40.002Z,59.95
2022-08-25T07:37:11.711Z,61.09
2022-08-25T07:37:50.109Z,60.39
2022-08-25T07:38:21.575Z,60.09
2022-08-25T07:38:53.221Z,59.99
2022-08-25T07:40:24.417Z,61.17
2022-08-25T07:41:05.210Z,60.44
2022-08-25T07:41:38.839Z,59.47
2022-08-25T07:42:13.000Z,57.84
2022-08-25T07:42:44.457Z,58.83
2022-08-25T07:43:15.811Z,59.75
2022-08-25T07:43:47.617Z,58.89
2022-08-25T07:45:13.111Z,60.32
2022-08-25T07:45:49.205Z,60.15
2022-08-25T07:46:21.074Z,60.76
2022-08-25T07:46:53.756Z,59.86
2022-08-25T07:47:25.163Z,59.38
2022-08-25T07:48:01.847Z,58.57
2022-08-25T07:48:33.228Z,58.22
2022-08-25T07:49:54.684Z,58.16
2022-08-25T07:50:27.987Z,58.61
2022-08-25T07:51:01.089Z,58.14
2022-08-25T07:52:24.248Z,58.75
2022-08-25T07:52:57.658Z,57.66
2022-08-25T07:53:29.201Z,57.91
2022-08-25T07:54:00.609Z,59.19
2022-08-25T07:54:34.799Z,60.26
2022-08-25T07:55:08.187Z,58.46
2022-08-25T07:55:42.755Z,57.26
2022-08-25T07:56:17.590Z,57.59
2022-08-25T07:56:48.972Z,57.05
2022-08-25T07:57:39.805Z,57.85
2022-08-25T07:58:12.274Z,57.42
2022-08-25T07:58:44.457Z,57.07
2022-08-25T07:59:16.034Z,56.29
2022-08-25T08:00:07.261Z,56.82
2022-08-25T08:00:42.341Z,57.30
2022-08-25T08:01:16.338Z,56.99
2022-08-25T08:01:47.718Z,56.12
2022-08-25T08:02:19.614Z,57.07
2022-08-25T08:03:50.867Z,56.96
2022-08-25T08:04:22.819Z,56.47
2022-08-25T08:05:43.496Z,54.17
2022-08-25T08:06:17.209Z,54.01
2022-08-25T08:07:11.995Z,54.94
2022-08-25T08:07:43.980Z,57.70
2022-08-25T08:08:15.391Z,55.70
2022-08-25T08:08:49.247Z,54.84
2022-08-25T08:09:21.077Z,55.65
2022-08-25T08:10:04.770Z,56.04
2022-08-25T08:11:56.088Z,56.79
2022-08-25T08:12:27.927Z,54.49
2022-08-25T08:12:59.723Z,55.13
2022-08-25T08:13:35.745Z,55.29
2022-08-25T08:14:11.564Z,54.81